Time;durP1;ratioP1;P1;durP2;ratioP2;P2;SDS_P1;SDS_P2;PMS_P1;PMS_P2;Temp;Humidity;BMP_temperature;BMP_pressure;BME280_temperature;BME280_humidity;BME280_pressure;Samples;Min_cycle;Max_cycle;Signal;HPM_P1;HPM_P2
2021/04/19 00:02:04;;;;;;;12.52;9.75;;;8.40;99.90;;;9.51;87.18;100954.69;4806085;29;20099;-83
2021/04/19 00:04:30;;;;;;;14.65;9.18;;;8.30;99.90;;;9.49;87.57;100948.66;4805945;29;20035;-85
2021/04/19 00:06:56;;;;;;;14.05;9.60;;;8.30;99.90;;;9.52;88.15;100947.16;4806465;29;20141;-86
2021/04/19 00:09:21;;;;;;;13.93;11.35;;;8.30;99.90;;;9.56;88.04;100961.22;4805838;29;20034;-84
2021/04/19 00:11:48;;;;;;;14.52;10.20;;;8.40;99.90;;;9.54;88.47;100950.41;4806087;29;20427;-83
2021/04/19 00:14:14;;;;;;;14.18;10.48;;;8.30;99.90;;;9.50;88.48;100957.84;4805992;29;20041;-82
2021/04/19 00:16:40;;;;;;;14.80;10.73;;;8.40;99.90;;;9.53;88.38;100954.38;4805849;29;20130;-83
2021/04/19 00:19:07;;;;;;;15.98;11.45;;;8.30;99.90;;;9.57;88.33;100948.94;4806212;29;20145;-83
2021/04/19 00:21:33;;;;;;;16.55;11.95;;;8.40;99.90;;;9.59;88.82;100939.03;4821341;29;20403;-87
2021/04/19 00:23:59;;;;;;;16.90;11.43;;;8.40;99.90;;;9.64;88.86;100943.56;4805965;29;20649;-86
2021/04/19 00:26:25;;;;;;;17.40;12.40;;;8.40;99.90;;;9.65;89.24;100940.44;4805976;29;20030;-86
2021/04/19 00:28:51;;;;;;;18.13;11.98;;;8.50;99.90;;;9.67;88.80;100931.72;4805856;29;20525;-86
2021/04/19 00:31:17;;;;;;;19.50;13.32;;;8.50;99.90;;;9.68;88.85;100931.41;4805245;29;20480;-86
2021/04/19 00:33:43;;;;;;;18.63;12.73;;;8.50;99.90;;;9.72;89.11;100935.13;4805456;29;20027;-83
2021/04/19 00:36:10;;;;;;;18.98;13.85;;;8.50;99.90;;;9.76;89.47;100940.84;4805220;29;20413;-85
2021/04/19 00:38:37;;;;;;;19.17;13.48;;;8.50;99.90;;;9.76;89.22;100940.84;4805717;29;20126;-84
2021/04/19 00:41:07;;;;;;;18.75;12.52;;;8.50;99.90;;;9.80;89.24;100941.75;4805169;29;20129;-84
2021/04/19 00:43:33;;;;;;;15.93;11.77;;;8.60;99.90;;;9.81;89.27;100935.84;4805590;29;20043;-85
2021/04/19 00:46:04;;;;;;;17.55;12.00;;;8.60;99.90;;;9.81;89.47;100941.41;4804974;29;20031;-84
2021/04/19 00:48:35;;;;;;;17.13;11.95;;;8.60;99.90;;;9.81;89.37;100938.63;4806426;29;20065;-85
2021/04/19 00:51:03;;;;;;;15.10;12.40;;;8.60;99.90;;;9.79;89.39;100937.34;4806783;29;20038;-83
2021/04/19 00:53:30;;;;;;;14.88;11.73;;;8.60;99.90;;;9.80;89.58;100930.59;4804972;29;20034;-82
2021/04/19 00:56:09;;;;;;;;;;;;;;;;;;;;;
2021/04/19 00:58:40;;;;;;;16.88;12.77;;;8.60;99.90;;;9.88;89.71;100930.50;4836274;24;20042;-83
2021/04/19 01:01:08;;;;;;;16.55;12.48;;;8.70;99.90;;;9.95;89.70;100927.94;4811117;29;20506;-86
2021/04/19 01:03:36;;;;;;;16.23;12.10;;;8.70;99.90;;;10.01;89.50;100934.94;4811863;29;20031;-85
2021/04/19 01:06:02;;;;;;;17.60;13.50;;;8.70;99.90;;;10.04;89.54;100931.47;4828096;29;20069;-86
2021/04/19 01:08:28;;;;;;;18.13;12.75;;;8.80;99.90;;;10.07;89.20;100932.72;4818322;29;20030;-86
2021/04/19 01:10:54;;;;;;;15.15;12.48;;;8.80;99.90;;;10.10;89.52;100934.81;4830233;29;20034;-86
2021/04/19 01:13:20;;;;;;;15.30;12.55;;;8.90;99.90;;;10.14;89.29;100932.19;4832082;29;20239;-86
2021/04/19 01:15:49;;;;;;;16.80;12.35;;;8.90;99.90;;;10.15;89.44;100931.81;4848092;29;20105;-85
2021/04/19 01:18:15;;;;;;;16.05;12.13;;;8.90;99.90;;;10.15;89.38;100933.78;4845291;29;20673;-86
2021/04/19 01:20:52;;;;;;;16.60;12.80;;;9.00;99.90;;;10.13;89.46;100933.31;4829099;29;20048;-85
2021/04/19 01:23:20;;;;;;;14.55;12.18;;;8.90;99.90;;;10.13;89.48;100934.13;4843440;29;20041;-84
2021/04/19 01:25:47;;;;;;;18.65;12.88;;;8.90;99.90;;;10.13;89.56;100933.31;4844355;29;20026;-86
2021/04/19 01:28:35;;;;;;;19.27;13.90;;;8.90;99.90;;;10.13;90.10;100934.13;4846352;29;20062;-86
2021/04/19 01:31:01;;;;;;;16.60;13.27;;;8.90;99.90;;;10.16;90.26;100939.03;4829960;29;20038;-86
2021/04/19 01:33:27;;;;;;;20.05;15.65;;;9.00;99.90;;;10.23;90.96;100941.25;4830110;29;20443;-85
2021/04/19 01:35:53;;;;;;;21.20;15.93;;;9.00;99.90;;;10.26;91.15;100933.00;4846003;29;20037;-83
2021/04/19 01:38:24;;;;;;;20.63;16.35;;;9.00;99.90;;;10.32;91.21;100936.38;4829619;29;20640;-84
2021/04/19 01:40:54;;;;;;;21.55;16.42;;;9.00;99.90;;;10.37;91.12;100934.16;4845288;29;20105;-86
2021/04/19 01:43:22;;;;;;;21.15;16.80;;;9.10;99.90;;;10.39;91.40;100936.59;4830391;29;20058;-86
2021/04/19 01:45:51;;;;;;;20.85;15.80;;;9.20;99.90;;;10.42;90.87;100933.94;4846626;29;20090;-83
2021/04/19 01:48:22;;;;;;;22.85;17.33;;;9.20;99.90;;;10.48;90.72;100940.06;4846073;29;20034;-86
2021/04/19 01:50:52;;;;;;;23.63;17.50;;;9.20;99.90;;;10.47;90.81;100944.03;4845019;29;20034;-84
2021/04/19 01:53:18;;;;;;;24.05;17.80;;;9.20;99.90;;;10.47;90.92;100944.84;4829506;29;20037;-86
2021/04/19 01:55:45;;;;;;;25.75;18.17;;;9.30;99.90;;;10.45;91.16;100946.38;4829655;29;20361;-86
2021/04/19 01:58:20;;;;;;;23.75;18.25;;;9.30;99.90;;;10.41;91.47;100939.84;4846568;29;20106;-85
2021/04/19 02:00:55;;;;;;;23.13;18.08;;;9.30;99.90;;;10.42;92.05;100942.31;4841562;29;20018;-86
2021/04/19 02:03:59;;;;;;;23.67;19.67;;;9.40;99.90;;;10.45;91.53;100941.59;4844422;29;20109;-82
2021/04/19 02:06:50;;;;;;;24.48;18.67;;;9.30;99.90;;;10.39;92.31;100950.56;4844162;29;20051;-84
2021/04/19 02:09:30;;;;;;;28.23;19.00;;;9.30;99.90;;;10.38;93.21;100948.94;4847846;29;20050;-83
2021/04/19 02:12:17;;;;;;;21.13;17.67;;;9.20;99.90;;;10.42;92.91;100955.44;4819057;29;20038;-85
2021/04/19 02:15:09;;;;;;;24.60;18.83;;;9.20;99.90;;;10.38;93.66;100946.94;4813499;29;20034;-88
2021/04/19 02:18:11;;;;;;;32.30;24.23;;;9.20;99.90;;;10.24;95.11;100949.25;4827366;29;20049;-85
2021/04/19 02:21:08;;;;;;;28.30;22.15;;;9.20;99.90;;;10.27;95.18;100951.38;4827592;29;20053;-84
2021/04/19 02:23:41;;;;;;;31.15;24.10;;;9.20;99.90;;;10.29;94.83;100959.41;4811507;29;20030;-88
2021/04/19 02:26:21;;;;;;;31.90;24.25;;;9.10;99.90;;;10.27;95.41;100958.94;4813391;29;20048;-86
2021/04/19 02:29:04;;;;;;;31.13;24.17;;;9.10;99.90;;;10.23;95.98;100963.59;4828006;29;20070;-86
2021/04/19 02:31:41;;;;;;;27.17;22.33;;;9.00;99.90;;;10.21;95.88;100954.75;4811421;29;20034;-87
2021/04/19 02:34:15;;;;;;;33.50;24.98;;;9.00;99.90;;;10.16;96.48;100954.97;4830295;29;20038;-82
2021/04/19 02:36:47;;;;;;;32.60;25.45;;;9.00;99.90;;;10.13;97.11;100958.44;4814987;29;20046;-84
2021/04/19 02:39:16;;;;;;;32.17;25.25;;;9.00;99.90;;;10.12;96.95;100954.00;4835594;29;20029;-85
2021/04/19 02:41:51;;;;;;;32.55;24.92;;;8.90;99.90;;;10.07;97.67;100957.84;4833259;29;20093;-86
2021/04/19 02:44:20;;;;;;;34.67;26.00;;;9.00;99.90;;;10.09;97.31;100952.72;4832002;29;20050;-84
2021/04/19 02:46:54;;;;;;;30.38;25.17;;;8.90;99.90;;;10.10;97.07;100951.56;4833336;29;20053;-83
2021/04/19 02:49:30;;;;;;;31.63;24.05;;;8.90;99.90;;;10.00;97.97;100957.59;4836477;29;20023;-85
2021/04/19 02:52:01;;;;;;;36.03;25.55;;;8.90;99.90;;;9.96;97.73;100953.88;4819802;29;20034;-83
2021/04/19 02:54:30;;;;;;;36.70;28.20;;;8.80;99.90;;;9.89;98.83;100939.66;4838076;29;20030;-85
2021/04/19 02:56:57;;;;;;;36.55;26.98;;;8.80;99.90;;;9.90;98.37;100939.34;4831313;29;20030;-82
2021/04/19 02:59:29;;;;;;;33.45;25.52;;;8.80;99.90;;;9.96;98.25;100943.53;4828139;29;20030;-85
2021/04/19 03:02:06;;;;;;;31.73;24.95;;;8.80;99.90;;;9.97;97.74;100939.59;4829693;29;20495;-86
2021/04/19 03:04:42;;;;;;;30.85;24.58;;;8.80;99.90;;;9.98;97.84;100941.22;4829488;29;20084;-86
2021/04/19 03:07:09;;;;;;;;;;;8.80;99.90;;;10.00;97.32;100941.69;4831081;29;20031;-82
2021/04/19 03:09:49;;;;;;;29.30;23.27;;;8.80;99.90;;;9.96;97.94;100943.53;4827463;29;20002;-84
2021/04/19 03:12:20;;;;;;;30.80;24.90;;;8.80;99.90;;;9.95;97.53;100932.72;4847531;29;20034;-85
2021/04/19 03:15:01;;;;;;;35.03;28.23;;;8.70;99.90;;;9.95;97.90;100933.50;4849682;29;20032;-85
2021/04/19 03:17:30;;;;;;;32.83;25.05;;;8.80;99.90;;;9.96;97.52;100935.16;4836543;29;20042;-85
2021/04/19 03:20:10;;;;;;;32.50;24.33;;;8.70;99.90;;;9.97;97.72;100938.75;4835065;29;20066;-85
2021/04/19 03:22:42;;;;;;;31.48;24.60;;;8.70;99.90;;;9.96;97.76;100937.13;4835535;29;20098;-85
2021/04/19 03:25:10;;;;;;;33.33;24.83;;;8.70;99.90;;;9.94;98.18;100929.13;4836093;29;20026;-86
2021/04/19 03:27:42;;;;;;;35.17;26.30;;;8.70;99.90;;;9.93;97.94;100929.44;4834194;29;20253;-82
2021/04/19 03:30:12;;;;;;;33.88;25.95;;;8.70;99.90;;;9.91;97.99;100932.59;4830239;29;20102;-85
2021/04/19 03:32:51;;;;;;;36.90;27.23;;;8.70;99.90;;;9.88;97.92;100921.31;4847254;29;20065;-87
2021/04/19 03:35:28;;;;;;;32.28;25.25;;;8.70;99.90;;;9.89;97.90;100929.31;4830461;29;20057;-86
2021/04/19 03:37:59;;;;;;;30.00;23.05;;;8.70;99.90;;;9.90;98.41;100925.38;4830007;29;20129;-87
2021/04/19 03:40:30;;;;;;;35.40;25.90;;;8.70;99.90;;;9.88;98.38;100926.91;4830604;29;20116;-87
2021/04/19 03:43:09;;;;;;;34.95;25.75;;;8.70;99.90;;;9.89;98.58;100923.75;4847777;29;20065;-85
2021/04/19 03:45:41;;;;;;;39.50;28.15;;;8.70;99.90;;;9.86;98.45;100915.25;4831506;29;20036;-85
2021/04/19 03:48:19;;;;;;;34.08;26.30;;;8.70;99.90;;;9.88;98.20;100915.75;4847970;29;20033;-83
2021/04/19 03:50:59;;;;;;;32.53;24.13;;;8.70;99.90;;;9.88;98.60;100916.56;4831293;29;20104;-83
2021/04/19 03:53:29;;;;;;;37.17;28.05;;;8.70;99.90;;;9.87;98.89;100922.47;4847710;29;20379;-87
2021/04/19 03:56:00;;;;;;;35.05;27.17;;;8.70;99.90;;;9.87;98.53;100916.91;4830854;29;20030;-84
2021/04/19 03:58:32;;;;;;;33.97;26.17;;;8.70;99.90;;;9.88;98.30;100918.53;4847928;29;20041;-86
2021/04/19 04:01:06;;;;;;;33.55;24.73;;;8.70;99.90;;;9.90;98.59;100914.22;4831949;29;20036;-84
2021/04/19 04:03:36;;;;;;;30.38;23.27;;;8.70;99.90;;;9.90;98.21;100911.44;4850160;29;20587;-85
2021/04/19 04:06:04;;;;;;;31.42;24.30;;;8.60;99.90;;;9.89;98.22;100911.78;4829724;29;20030;-84
2021/04/19 04:08:32;;;;;;;35.92;25.02;;;8.70;99.90;;;9.88;98.55;100927.72;4839962;29;20026;-85
2021/04/19 04:11:00;;;;;;;33.97;24.83;;;8.70;99.90;;;9.91;98.84;100915.03;4811754;29;20582;-86
2021/04/19 04:13:29;;;;;;;39.42;28.23;;;8.70;99.90;;;9.88;99.02;100912.94;4828851;29;20172;-86
2021/04/19 04:15:59;;;;;;;33.08;24.83;;;8.70;99.90;;;9.90;98.97;100914.22;4830632;29;20030;-84
2021/04/19 04:18:26;;;;;;;36.95;25.98;;;8.70;99.90;;;9.90;98.81;100925.38;4833953;29;20102;-85
2021/04/19 04:20:53;;;;;;;36.22;26.38;;;8.70;99.90;;;9.86;99.22;100918.88;4828966;29;20099;-87
2021/04/19 04:23:20;;;;;;;34.65;25.27;;;8.70;99.90;;;9.81;99.02;100923.88;4829607;29;20034;-84
2021/04/19 04:25:47;;;;;;;36.08;25.10;;;8.70;99.90;;;9.83;98.80;100921.53;4812790;29;20081;-86
2021/04/19 04:28:14;;;;;;;34.65;25.13;;;8.70;99.90;;;9.83;98.81;100919.56;4829809;29;20026;-85
2021/04/19 04:30:42;;;;;;;36.45;26.80;;;8.60;99.90;;;9.82;99.00;100920.75;4812963;29;20034;-85
2021/04/19 04:33:09;;;;;;;37.15;26.48;;;8.70;99.90;;;9.90;98.61;100927.34;4830392;29;20030;-84
2021/04/19 04:35:37;;;;;;;36.53;26.60;;;8.70;99.90;;;9.87;98.93;100917.72;4812215;29;20034;-83
2021/04/19 04:38:04;;;;;;;37.45;25.95;;;8.70;99.90;;;9.90;98.66;100919.00;4812891;29;20038;-85
2021/04/19 04:40:32;;;;;;;33.55;24.15;;;8.70;99.90;;;9.94;98.27;100923.53;4812718;29;20030;-84
2021/04/19 04:43:18;;;;;;;35.15;25.00;;;8.70;99.90;;;9.98;98.37;100920.88;4829880;29;20133;-84
2021/04/19 04:45:46;;;;;;;32.60;23.87;;;8.70;99.90;;;10.01;97.92;100923.78;4814331;29;20034;-84
2021/04/19 04:48:41;;;;;;;30.85;23.27;;;8.80;99.90;;;10.00;97.51;100922.16;4814259;29;20272;-85
2021/04/19 04:51:22;;;;;;;28.02;21.42;;;8.80;99.90;;;10.06;97.27;100925.50;4815931;29;20041;-83
2021/04/19 04:54:01;;;;;;;30.38;22.83;;;8.80;99.90;;;9.99;97.07;100922.47;4832282;29;20079;-88
2021/04/19 04:56:34;;;;;;;28.77;19.65;;;8.80;99.90;;;10.02;96.82;100925.41;4835235;29;20254;-86
2021/04/19 04:59:04;;;;;;;28.58;20.88;;;8.80;99.90;;;10.09;96.42;100924.81;4836591;29;20030;-84
2021/04/19 05:01:34;;;;;;;25.98;19.95;;;8.80;99.90;;;10.10;96.01;100928.44;4837464;29;20034;-84
2021/04/19 05:04:03;;;;;;;27.38;20.42;;;8.80;99.90;;;10.11;95.96;100928.09;4814525;29;20035;-84
2021/04/19 05:06:31;;;;;;;24.75;18.55;;;8.80;99.90;;;10.06;95.60;100922.72;4814193;29;20022;-83
2021/04/19 05:09:00;;;;;;;20.88;16.42;;;8.80;99.90;;;10.08;95.50;100935.16;4822977;29;20429;-84
2021/04/19 05:11:26;;;;;;;21.73;16.50;;;8.80;99.90;;;10.05;94.87;100932.25;4830738;29;20034;-83
2021/04/19 05:14:01;;;;;;;23.33;18.42;;;8.80;99.90;;;10.03;94.95;100935.41;4831955;29;20038;-85
2021/04/19 05:16:31;;;;;;;21.40;17.30;;;8.80;99.90;;;10.01;94.51;100934.94;4831557;29;20041;-83
2021/04/19 05:19:06;;;;;;;21.42;16.55;;;8.80;99.90;;;10.00;94.66;100941.69;4845224;29;20041;-83
2021/04/19 05:21:34;;;;;;;24.80;17.02;;;8.80;99.90;;;10.02;94.26;100947.72;4823570;29;20368;-84
2021/04/19 05:24:00;;;;;;;25.27;17.83;;;8.80;99.90;;;10.05;94.04;100943.41;4838056;29;20047;-85
2021/04/19 05:26:28;;;;;;;22.17;16.75;;;8.80;99.90;;;10.02;93.81;100938.53;4811398;29;20097;-81
2021/04/19 05:28:55;;;;;;;21.45;16.13;;;8.80;99.90;;;10.03;93.59;100946.56;4827719;29;20089;-83
2021/04/19 05:31:21;;;;;;;20.67;16.17;;;8.80;99.90;;;10.06;93.49;100942.25;4811561;29;20042;-82
2021/04/19 05:33:58;;;;;;;21.48;14.95;;;8.80;99.90;;;10.12;92.96;100951.22;4812258;29;20030;-83
2021/04/19 05:36:26;;;;;;;21.63;16.60;;;8.90;99.90;;;10.10;93.17;100939.59;4828997;29;20041;-84
2021/04/19 05:38:57;;;;;;;20.17;15.35;;;8.90;99.90;;;10.07;93.62;100950.31;4813855;29;20042;-84
2021/04/19 05:41:24;;;;;;;21.33;16.55;;;8.90;99.90;;;10.12;93.51;100943.66;4816697;29;20022;-85
2021/04/19 05:43:51;;;;;;;22.33;16.85;;;9.00;99.90;;;10.15;93.45;100961.72;4828299;29;20134;-81
2021/04/19 05:46:19;;;;;;;21.55;17.27;;;8.90;99.90;;;10.09;93.94;100961.09;4823247;29;20056;-83
2021/04/19 05:48:46;;;;;;;22.17;18.08;;;8.90;99.90;;;10.04;93.87;100958.53;4827685;29;20027;-83
2021/04/19 05:51:41;;;;;;;24.10;18.50;;;8.90;99.90;;;9.94;94.79;100959.81;4817246;29;20062;-84
2021/04/19 05:54:11;;;;;;;23.35;18.30;;;8.90;99.90;;;10.07;94.10;100966.22;4813692;29;20053;-84
2021/04/19 05:56:58;;;;;;;27.88;21.50;;;8.90;99.90;;;10.06;94.91;100968.19;4822304;29;20038;-84
2021/04/19 06:00:05;;;;;;;29.67;21.35;;;9.00;99.90;;;10.19;94.80;100969.06;4813964;29;20041;-83
2021/04/19 06:03:05;;;;;;;27.88;20.20;;;9.00;99.90;;;10.33;94.60;100971.50;4810244;29;20496;-86
2021/04/19 06:06:08;;;;;;;27.63;20.67;;;9.10;99.90;;;10.44;93.92;100976.25;4823717;29;20030;-87
2021/04/19 06:09:14;;;;;;;26.83;18.70;;;9.20;99.90;;;10.50;93.90;100972.06;4823429;29;20023;-87
2021/04/19 06:11:54;;;;;;;21.15;15.88;;;9.30;99.90;;;10.45;92.53;100982.66;4806327;29;20039;-85
2021/04/19 06:14:36;;;;;;;20.38;15.73;;;9.30;99.90;;;10.51;92.58;100978.47;4824842;29;20030;-87
2021/04/19 06:17:06;;;;;;;21.15;16.30;;;9.30;99.90;;;10.63;92.16;100972.88;4819826;29;20054;-84
2021/04/19 06:19:41;;;;;;;20.38;14.50;;;9.40;99.90;;;10.52;91.31;100980.13;4836260;29;20038;-85
2021/04/19 06:22:09;;;;;;;17.57;13.70;;;9.40;99.90;;;10.42;90.77;100980.56;4834655;29;20068;-86
2021/04/19 06:24:38;;;;;;;19.05;14.70;;;9.30;99.90;;;10.52;90.85;100983.72;4817785;29;20041;-84
2021/04/19 06:27:04;;;;;;;18.02;13.80;;;9.30;99.90;;;10.45;90.72;100985.47;4819128;29;20109;-84
2021/04/19 06:29:30;;;;;;;17.65;13.90;;;9.30;99.90;;;10.38;90.65;100983.25;4825149;29;20037;-83
2021/04/19 06:31:59;;;;;;;18.58;14.15;;;9.30;99.90;;;10.43;90.83;100973.84;4824073;29;20036;-84
2021/04/19 06:34:26;;;;;;;15.02;11.60;;;9.30;99.90;;;10.44;90.57;100984.66;4841038;29;20056;-83
2021/04/19 06:36:53;;;;;;;16.33;13.25;;;9.30;99.90;;;10.50;90.34;100993.59;4821083;29;20031;-85
2021/04/19 06:39:21;;;;;;;15.30;11.13;;;9.30;99.90;;;10.52;89.41;100989.31;4822047;29;20030;-83
2021/04/19 06:41:48;;;;;;;15.65;12.00;;;9.30;99.90;;;10.71;89.71;100983.13;4817447;29;20046;-85
2021/04/19 06:44:15;;;;;;;15.95;12.27;;;9.50;99.90;;;10.83;88.55;100980.31;4821428;29;20106;-85
2021/04/19 06:46:48;;;;;;;15.80;11.93;;;9.60;99.90;;;11.07;88.71;100985.88;4818295;29;20035;-85
2021/04/19 06:49:24;;;;;;;;;;;;;;;;;;;;;
2021/04/19 06:51:56;;;;;;;14.80;11.40;;;10.00;99.90;;;11.63;87.66;100975.50;4837496;29;20090;-82
2021/04/19 06:54:30;;;;;;;14.20;10.52;;;10.20;99.90;;;11.90;86.53;100982.28;4830094;29;20042;-86
2021/04/19 06:56:59;;;;;;;13.45;10.57;;;10.40;99.90;;;12.04;85.03;100977.03;4832374;29;20022;-86
2021/04/19 06:59:27;;;;;;;11.02;9.18;;;10.60;99.90;;;12.40;82.82;100967.53;4834103;24;20051;-80
2021/04/19 07:01:55;;;;;;;9.50;8.25;;;10.90;99.90;;;12.80;79.36;100977.72;4823503;29;20046;-81
2021/04/19 07:04:27;;;;;;;9.07;6.90;;;11.40;99.90;;;12.90;76.74;100972.34;4823930;29;20031;-81
2021/04/19 07:06:55;;;;;;;9.43;7.97;;;11.60;99.90;;;12.96;77.97;100978.47;4819308;29;20155;-85
2021/04/19 07:09:32;;;;;;;11.25;8.88;;;11.60;99.90;;;13.21;77.34;100971.44;4812818;29;20172;-83
2021/04/19 07:12:13;;;;;;;10.20;7.63;;;11.80;99.90;;;13.08;75.33;100978.34;4795775;30;20027;-84
2021/04/19 07:14:40;;;;;;;8.25;7.32;;;11.70;99.90;;;13.19;76.67;100982.25;4794192;30;20065;-86
2021/04/19 07:17:08;;;;;;;9.52;7.43;;;11.80;99.90;;;13.31;75.37;100975.66;4793445;30;20068;-87
2021/04/19 07:19:36;;;;;;;7.57;6.35;;;11.90;99.90;;;13.63;75.37;100980.75;4796221;30;20181;-86
2021/04/19 07:22:04;;;;;;;8.25;6.82;;;12.10;99.90;;;13.75;74.25;100974.16;4797515;29;20049;-84
2021/04/19 07:24:30;;;;;;;6.93;5.65;;;12.30;99.90;;;13.59;74.29;100981.84;4811049;29;20031;-84
2021/04/19 07:26:58;;;;;;;6.97;5.72;;;12.30;99.90;;;13.51;72.82;100980.09;4826765;29;20388;-83
2021/04/19 07:29:26;;;;;;;5.18;4.40;;;12.30;99.90;;;13.04;73.21;100974.63;4825510;29;20038;-82
2021/04/19 07:31:59;;;;;;;5.70;4.22;;;12.10;99.90;;;13.03;72.97;100981.44;4803749;29;20551;-85
2021/04/19 07:34:29;;;;;;;5.45;4.55;;;12.00;99.90;;;13.18;72.76;100983.41;4792971;30;20603;-86
2021/04/19 07:37:00;;;;;;;6.40;5.07;;;12.00;99.90;;;13.44;72.46;100985.56;4798787;29;20038;-85
2021/04/19 07:39:30;;;;;;;7.00;4.97;;;12.10;99.90;;;13.65;71.66;100981.19;4806554;29;20365;-81
2021/04/19 07:42:06;;;;;;;7.40;4.93;;;12.30;99.90;;;14.05;71.79;100985.56;4793102;30;20507;-81
2021/04/19 07:44:48;;;;;;;;;;;12.50;99.90;;;14.48;68.79;100973.09;4793252;30;20035;-81
2021/04/19 07:47:41;;;;;;;4.93;3.90;;;12.90;99.90;;;14.84;66.53;100980.06;4823063;29;19917;-82
2021/04/19 07:50:23;;;;;;;4.78;3.78;;;13.40;99.90;;;14.84;66.39;100982.88;4800692;29;20035;-85
2021/04/19 07:53:05;;;;;;;4.75;3.10;;;13.60;99.90;;;15.45;62.63;100983.31;4793917;30;20061;-86
2021/04/19 07:55:40;;;;;;;4.35;3.33;;;13.80;99.90;;;15.49;63.85;100972.13;4793800;30;20034;-83
2021/04/19 07:58:22;;;;;;;4.15;3.20;;;14.00;99.90;;;15.67;60.87;100973.16;4808376;29;20331;-83
2021/04/19 08:01:03;;;;;;;4.38;3.17;;;14.10;99.90;;;16.00;60.16;100980.75;4807931;29;20270;-84
2021/04/19 08:03:42;;;;;;;3.90;2.97;;;14.30;99.90;;;16.34;59.19;100971.81;4792609;30;20036;-85
2021/04/19 08:06:23;;;;;;;3.90;2.42;;;14.60;99.90;;;16.94;58.87;100977.16;4806635;29;20037;-87
2021/04/19 08:08:49;;;;;;;2.92;2.50;;;15.20;99.90;;;18.05;54.52;100984.91;4808357;29;20088;-83
2021/04/19 08:11:20;;;;;;;3.90;2.40;;;16.00;99.90;;;18.06;53.84;100987.34;4807923;29;20031;-86
2021/04/19 08:13:47;;;;;;;5.93;2.33;;;16.40;99.90;;;17.28;54.14;100978.56;4806836;29;20027;-85
2021/04/19 08:16:26;;;;;;;2.85;2.28;;;16.20;99.90;;;17.86;52.64;100986.06;4807967;29;20042;-85
2021/04/19 08:19:04;;;;;;;4.43;2.60;;;16.40;99.90;;;18.54;50.71;100976.50;4793672;29;20062;-86
2021/04/19 08:21:33;;;;;;;4.75;2.30;;;16.60;99.90;;;18.27;52.52;100976.03;4794476;30;20480;-86
2021/04/19 08:24:28;;;;;;;3.22;2.05;;;16.80;99.90;;;18.41;50.77;100973.25;4808327;29;20107;-82
2021/04/19 08:26:59;;;;;;;1.80;1.70;;;16.90;99.90;;;18.14;50.33;100976.88;4782102;30;20035;-84
2021/04/19 08:29:43;;;;;;;2.78;1.98;;;16.80;97.70;;;18.42;51.76;100991.84;4806637;29;20439;-86
2021/04/19 08:32:12;;;;;;;1.95;1.65;;;17.00;99.90;;;18.83;48.76;100986.59;4805941;29;20043;-85
2021/04/19 08:34:40;;;;;;;5.07;2.30;;;17.10;96.10;;;18.63;49.33;100978.91;4807710;29;20027;-82
2021/04/19 08:37:09;;;;;;;2.72;1.77;;;17.00;96.00;;;18.49;48.90;100982.53;4794056;29;20032;-85
2021/04/19 08:39:38;;;;;;;2.40;1.90;;;17.00;94.20;;;18.62;49.05;100980.94;4807680;29;20126;-85
2021/04/19 08:42:05;;;;;;;1.52;1.17;;;17.00;94.80;;;18.35;47.24;100991.81;4806775;29;20051;-83
2021/04/19 08:44:35;;;;;;;3.25;1.95;;;16.90;90.90;;;17.44;51.25;100997.16;4806686;29;20035;-87
2021/04/19 08:47:03;;;;;;;2.05;1.83;;;16.40;94.30;;;16.53;52.91;100992.53;4809365;29;20126;-84
2021/04/19 08:49:30;;;;;;;2.90;2.35;;;15.80;95.50;;;17.12;51.77;101002.66;4808553;29;20428;-82
2021/04/19 08:51:58;;;;;;;3.72;2.65;;;15.90;97.20;;;17.50;50.59;100992.78;4794831;29;20039;-86
2021/04/19 08:54:26;;;;;;;3.05;2.75;;;16.00;96.90;;;17.90;50.36;100995.38;4790834;30;20080;-81
2021/04/19 08:56:54;;;;;;;3.75;3.20;;;16.30;98.30;;;18.14;51.78;100977.66;4794863;29;20079;-86
2021/04/19 08:59:23;;;;;;;7.90;5.15;;;16.60;99.90;;;18.34;52.97;100984.53;4773156;30;20040;-83
2021/04/19 09:01:53;;;;;;;5.57;3.65;;;16.50;99.90;;;17.54;51.34;100988.75;4798270;29;20032;-77
2021/04/19 09:04:24;;;;;;;4.32;3.50;;;16.20;97.50;;;16.70;53.65;100983.44;4804971;30;20040;-82
2021/04/19 09:06:55;;;;;;;8.18;5.22;;;15.60;99.90;;;16.43;56.75;100979.16;4773264;29;20399;-80
2021/04/19 09:09:39;;;;;;;7.70;5.43;;;15.10;99.90;;;16.22;58.11;100988.22;4791102;29;20392;-84
2021/04/19 09:12:11;;;;;;;8.75;6.60;;;14.70;99.90;;;15.99;58.82;100987.63;4788185;29;20446;-86
2021/04/19 09:14:43;;;;;;;7.93;6.50;;;14.60;99.90;;;15.96;60.26;100979.94;4797803;29;20423;-84
2021/04/19 09:17:09;;;;;;;7.50;6.35;;;14.50;99.90;;;15.82;58.82;100986.22;4806578;29;20038;-82
2021/04/19 09:19:39;;;;;;;8.55;5.93;;;14.40;99.90;;;15.45;60.65;100983.31;4805778;29;20035;-83
2021/04/19 09:22:14;;;;;;;8.50;6.53;;;14.30;99.90;;;15.53;59.70;100987.09;4803735;29;20407;-82
2021/04/19 09:25:07;;;;;;;8.50;6.70;;;14.10;99.90;;;15.43;61.36;100979.28;4797900;29;20031;-85
2021/04/19 09:27:53;;;;;;;8.82;6.65;;;14.00;99.90;;;15.67;61.09;100979.59;4773257;29;20031;-83
2021/04/19 09:30:22;;;;;;;6.82;5.68;;;14.10;99.90;;;16.27;58.43;100985.88;4802081;29;20038;-82
2021/04/19 09:33:08;;;;;;;7.97;6.70;;;14.50;99.90;;;16.21;57.74;100978.94;4799034;29;20062;-84
2021/04/19 09:38:13;;;;;;;8.32;5.85;;;14.70;99.90;;;16.05;58.31;100984.06;4776523;29;20647;-85
2021/04/19 09:40:55;;;;;;;10.80;6.55;;;14.50;99.90;;;15.53;59.74;100985.09;4806710;29;20039;-86
2021/04/19 09:43:38;;;;;;;8.85;6.43;;;14.20;99.90;;;15.52;60.58;100979.81;4801652;29;20031;-85
2021/04/19 09:46:18;;;;;;;10.10;7.40;;;14.10;99.90;;;15.47;61.78;100980.13;4808185;29;20027;-82
2021/04/19 09:48:59;;;;;;;12.38;8.38;;;14.00;99.90;;;15.57;61.22;100971.84;4774302;30;20062;-83
2021/04/19 09:51:43;;;;;;;9.85;7.00;;;14.00;99.90;;;15.16;61.21;100968.06;4773145;30;20500;-83
2021/04/19 09:54:18;;;;;;;9.80;7.72;;;13.90;99.90;;;15.19;62.48;100980.56;4788627;30;20055;-83
2021/04/19 09:56:57;;;;;;;9.80;7.45;;;13.90;99.90;;;15.18;61.47;100968.53;4814800;29;20552;-81
2021/04/19 09:59:29;;;;;;;12.20;7.50;;;13.90;99.90;;;15.55;60.54;100973.41;4800057;29;20050;-84
2021/04/19 10:02:00;;;;;;;10.40;8.52;;;14.00;99.90;;;15.34;60.33;100978.75;4806908;29;20357;-86
2021/04/19 10:04:35;;;;;;;10.48;8.48;;;14.10;99.90;;;15.60;59.87;100978.72;4808452;29;20058;-82
2021/04/19 10:07:02;;;;;;;10.07;8.18;;;14.20;99.90;;;15.70;59.27;100981.66;4798801;29;20099;-82
2021/04/19 10:09:30;;;;;;;10.23;7.93;;;14.50;99.90;;;15.61;58.50;100978.31;4798472;29;20035;-83
2021/04/19 10:12:07;;;;;;;11.40;8.73;;;14.30;99.90;;;15.71;59.29;100980.47;4815569;29;20046;-83
2021/04/19 10:14:38;;;;;;;10.32;8.68;;;14.40;99.90;;;15.64;59.17;100977.56;4812756;29;20027;-81
2021/04/19 10:17:29;;;;;;;10.40;7.75;;;14.40;99.90;;;15.82;58.28;100981.41;4802132;29;20092;-84
2021/04/19 10:19:55;;;;;;;12.43;8.50;;;14.40;99.90;;;15.70;58.89;100972.41;4792402;29;20062;-83
2021/04/19 10:22:21;;;;;;;13.18;8.00;;;14.30;99.90;;;15.57;58.60;100973.88;4793110;29;20024;-82
2021/04/19 10:24:57;;;;;;;10.68;7.65;;;14.30;99.90;;;15.31;58.52;100969.09;4794730;29;20119;-84
2021/04/19 10:27:33;;;;;;;10.80;7.13;;;14.30;99.90;;;15.57;57.71;100968.22;4799906;29;20433;-83
2021/04/19 10:30:20;;;;;;;12.60;7.80;;;14.40;99.90;;;15.80;56.02;100963.25;4805002;29;20140;-84
2021/04/19 10:32:50;;;;;;;10.15;7.93;;;14.40;99.90;;;15.75;58.59;100964.41;4792504;29;20046;-84
2021/04/19 10:35:41;;;;;;;8.68;7.07;;;14.50;99.90;;;16.00;55.74;100958.22;4809792;29;20050;-83
2021/04/19 10:39:39;;;;;;;10.65;7.18;;;14.60;99.90;;;16.03;55.68;100961.06;4813059;29;20054;-81
2021/04/19 10:42:06;;;;;;;11.25;6.68;;;14.60;99.90;;;15.74;55.75;100957.16;4811095;29;20039;-82